Alpine, TX

1:40 AM CDT on June 29, 2017 (GMT -0500)
Alpine

Weather History for KE38 - February, 2013

Change the Weather History Date:

Wednesday, February 6, 2013

  Actual Average (KMRF) Record (KMRF)
Temperature  
Mean Temperature 54 °F -  
Max Temperature 70 °F 57 °F 75 °F (2009)
Min Temperature 37 °F 27 °F 12 °F (2016)
Degree Days  
Heating Degree Days 12    
Growing Degree Days 4 (Base 50)    
Moisture  
Dew Point 31 °F    
Average Humidity 46    
Maximum Humidity 71    
Minimum Humidity 24    
Precipitation  
Precipitation 0.00 in - - ()
Sea Level Pressure  
Sea Level Pressure 30.03 in    
Wind  
Wind Speed 7 mph (South)    
Max Wind Speed 16 mph    
Max Gust Speed 23 mph    
Visibility 10 miles    
Events      
Averages and records for this station are not official NWS values.
T = Trace of Precipitation, MM = Missing Value Source: NWS Daily Summary

Daily Weather History Graph

Daily Weather History Graph

Search for Another Location

Airport or City:

Trip Planner

Search our weather history database for the weather conditions in past years. The results will help you decide how hot, cold, wet, or windy it might be!

Date:

Astronomy

Feb. 06, 2013 Rise Set
Actual Time 7:42 AM CST 6:35 PM CST
Civil Twilight 7:17 AM CST 7:00 PM CST
Nautical Twilight 6:48 AM CST 7:29 PM CST
Astronomical Twilight 6:20 AM CST 7:57 PM CST
Moon 4:20 AM CST (2/6) 3:04 PM CST (2/6)
Length of Visible Light 11h 43m
Length of Day
10h 53m
Waning Crescent, 17% of the Moon is Illuminated
Feb 6
Waning Crescent
Feb 10
New
Feb 17
First Quarter
Feb 25
Full
Mar 4
Last Quarter

Hourly Weather History & Observations

Time (CST) Temp. Windchill Dew Point Humidity Pressure Visibility Wind Dir Wind Speed Gust Speed Precip Events Conditions
12:15 AM 39.9 °F 35.1 °F 28.8 °F 64% 30.08 in 10.0 mi South 6.9 mph - N/A   Clear
12:35 AM 39.4 °F 35.2 °F 28.8 °F 66% 30.07 in 10.0 mi South 5.8 mph - N/A   Clear
12:55 AM 39.6 °F 35.4 °F 28.8 °F 65% 30.07 in 10.0 mi SSW 5.8 mph - N/A   Clear
1:15 AM 39.4 °F 36.1 °F 28.8 °F 66% 30.07 in 10.0 mi SSW 4.6 mph - N/A   Clear
1:35 AM 37.9 °F 33.5 °F 28.6 °F 69% 30.07 in 10.0 mi South 5.8 mph - N/A   Clear
1:55 AM 37.8 °F 32.5 °F 28.8 °F 70% 30.07 in 10.0 mi South 6.9 mph - N/A   Clear
2:15 AM 39.6 °F 35.4 °F 28.9 °F 66% 30.07 in 10.0 mi SSW 5.8 mph - N/A   Clear
2:35 AM 39.4 °F 34.5 °F 29.1 °F 67% 30.06 in 10.0 mi South 6.9 mph - N/A   Clear
2:55 AM 40.5 °F 38.4 °F 29.5 °F 65% 30.06 in 10.0 mi South 3.5 mph - N/A   Clear
3:15 AM 40.3 °F 35.5 °F 29.5 °F 65% 30.06 in 10.0 mi South 6.9 mph - N/A   Clear
3:35 AM 40.3 °F 35.5 °F 29.3 °F 65% 30.06 in 10.0 mi South 6.9 mph - N/A   Clear
3:55 AM 39.7 °F 35.6 °F 29.1 °F 66% 30.06 in 10.0 mi SSE 5.8 mph - N/A   Clear
4:55 AM 39.4 °F 33.8 °F 29.1 °F 67% 30.06 in 10.0 mi SSW 8.1 mph - N/A   Scattered Clouds
5:15 AM 39.0 °F 35.7 °F 29.1 °F 68% 30.06 in 10.0 mi SSW 4.6 mph - N/A   Scattered Clouds
5:35 AM 37.9 °F 32.1 °F 29.1 °F 71% 30.05 in 10.0 mi South 8.1 mph - N/A   Scattered Clouds
5:55 AM 39.9 °F 33.4 °F 29.7 °F 67% 30.04 in 10.0 mi South 10.4 mph - N/A   Scattered Clouds
6:15 AM 41.0 °F 35.8 °F 29.8 °F 64% 30.04 in 10.0 mi SSW 8.1 mph - N/A   Clear
6:35 AM 40.5 °F 34.6 °F 29.7 °F 65% 30.04 in 10.0 mi South 9.2 mph - N/A   Clear
6:55 AM 39.6 °F 33.5 °F 29.7 °F 68% 30.04 in 10.0 mi South 9.2 mph - N/A   Clear
7:35 AM 40.1 °F 34.7 °F 30.0 °F 67% 30.06 in 10.0 mi SSW 8.1 mph - N/A   Clear
7:55 AM 40.8 °F 35.6 °F 30.0 °F 65% 30.06 in 10.0 mi South 8.1 mph - N/A   Clear
8:15 AM 43.2 °F 38.4 °F 30.6 °F 61% 30.06 in 10.0 mi South 8.1 mph - N/A   Clear
8:35 AM 46.2 °F 43.3 °F 31.5 °F 56% 30.06 in 10.0 mi SSW 5.8 mph - N/A   Clear
8:55 AM 49.8 °F - 32.0 °F 50% 30.07 in 10.0 mi Calm Calm - N/A   Clear
9:15 AM 53.8 °F - 32.2 °F 44% 30.07 in 10.0 mi Calm Calm - N/A   Clear
9:35 AM 57.2 °F - 32.5 °F 39% 30.07 in 10.0 mi Calm Calm - N/A   Clear
9:55 AM 59.5 °F - 32.2 °F 36% 30.07 in 10.0 mi Calm Calm - N/A   Clear
10:15 AM 61.5 °F - 32.0 °F 33% 30.07 in 10.0 mi Calm Calm - N/A   Clear
10:35 AM 63.3 °F - 31.1 °F 30% 30.07 in 10.0 mi South 6.9 mph - N/A   Clear
10:55 AM 64.2 °F - 31.6 °F 30% 30.07 in 10.0 mi South 4.6 mph - N/A   Clear
11:15 AM 64.8 °F - 32.5 °F 30% 30.07 in 10.0 mi SW 10.4 mph - N/A   Clear
11:35 AM 66.2 °F - 33.3 °F 29% 30.06 in 10.0 mi South 10.4 mph - N/A   Clear
11:55 AM 66.6 °F - 34.0 °F 30% 30.05 in 10.0 mi South 12.7 mph 18.4 mph N/A   Clear
12:15 PM 67.3 °F - 34.3 °F 30% 30.04 in 10.0 mi South 12.7 mph 18.4 mph N/A   Clear
12:35 PM 68.2 °F - 33.8 °F 28% 30.04 in 10.0 mi SW 12.7 mph 16.1 mph N/A   Clear
12:55 PM 67.8 °F - 33.3 °F 28% 30.02 in 10.0 mi SSE 12.7 mph - N/A   Clear
1:15 PM 68.4 °F - 32.9 °F 27% 30.01 in 10.0 mi SW 11.5 mph - N/A   Clear
1:35 PM 68.7 °F - 32.7 °F 26% 30.01 in 10.0 mi SSW 13.8 mph - N/A   Clear
1:55 PM 68.4 °F - 31.8 °F 26% 30.00 in 10.0 mi SW 15.0 mph 18.4 mph N/A   Clear
2:15 PM 68.4 °F - 32.2 °F 26% 29.98 in 10.0 mi SW 8.1 mph - N/A   Scattered Clouds
2:35 PM 70.0 °F - 32.7 °F 25% 29.98 in 10.0 mi SSE 9.2 mph 23.0 mph N/A   Scattered Clouds
2:55 PM 69.6 °F - 33.3 °F 26% 29.97 in 10.0 mi South 13.8 mph 20.7 mph N/A   Scattered Clouds
3:35 PM 69.8 °F - 34.0 °F 27% 29.96 in 10.0 mi SSE 12.7 mph 19.6 mph N/A   Overcast
3:55 PM 69.6 °F - 33.6 °F 27% 29.96 in 10.0 mi SSW 12.7 mph 21.9 mph N/A   Mostly Cloudy
4:15 PM 69.3 °F - 32.7 °F 26% 29.96 in 10.0 mi South 12.7 mph 16.1 mph N/A   Mostly Cloudy
4:35 PM 70.9 °F - 32.2 °F 24% 29.96 in 10.0 mi South 9.2 mph - N/A   Scattered Clouds
4:55 PM 69.1 °F - 32.0 °F 25% 29.96 in 10.0 mi SSE 16.1 mph 20.7 mph N/A   Scattered Clouds
5:15 PM 70.2 °F - 32.0 °F 24% 29.96 in 10.0 mi SSW 15.0 mph 21.9 mph N/A   Clear
5:35 PM 68.7 °F - 31.8 °F 25% 29.97 in 10.0 mi South 12.7 mph - N/A   Clear
5:55 PM 67.1 °F - 31.5 °F 27% 29.97 in 10.0 mi South 11.5 mph - N/A   Clear
6:15 PM 66.2 °F - 31.3 °F 27% 29.98 in 10.0 mi South 5.8 mph - N/A   Clear
6:35 PM 64.8 °F - 31.5 °F 29% 29.98 in 10.0 mi SW 9.2 mph - N/A   Clear
6:55 PM 62.1 °F - 32.0 °F 32% 29.99 in 10.0 mi SW 8.1 mph - N/A   Clear
7:15 PM 59.0 °F - 32.0 °F 36% 30.00 in 10.0 mi SSW 6.9 mph - N/A   Clear
7:35 PM 55.0 °F - 31.5 °F 41% 30.01 in 10.0 mi South 8.1 mph - N/A   Clear
7:55 PM 52.3 °F - 31.3 °F 45% 30.02 in 10.0 mi SW 6.9 mph - N/A   Clear
8:15 PM 51.3 °F - 31.5 °F 47% 30.02 in 10.0 mi SSE 6.9 mph - N/A   Clear
8:35 PM 52.2 °F - 32.0 °F 46% 30.02 in 10.0 mi SSE 5.8 mph - N/A   Clear
8:55 PM 50.9 °F - 32.0 °F 48% 30.03 in 10.0 mi South 6.9 mph - N/A   Clear
9:15 PM 51.1 °F - 31.8 °F 48% 30.03 in 10.0 mi South 8.1 mph - N/A   Clear
9:35 PM 51.8 °F - 31.8 °F 47% 30.03 in 10.0 mi South 6.9 mph - N/A   Clear
9:55 PM 51.6 °F - 31.6 °F 46% 30.04 in 10.0 mi South 8.1 mph - N/A   Clear
10:15 PM 49.5 °F - 31.8 °F 51% 30.04 in 10.0 mi South 9.2 mph - N/A   Clear
10:35 PM 46.8 °F - 31.6 °F 56% 30.04 in 10.0 mi South 9.2 mph - N/A   Clear
10:55 PM 47.3 °F - 31.8 °F 55% 30.04 in 10.0 mi South 9.2 mph - N/A   Clear
11:15 PM 47.1 °F - 31.8 °F 55% 30.04 in 10.0 mi South 9.2 mph - N/A   Clear
11:35 PM 45.1 °F 40.8 °F 31.5 °F 59% 30.05 in 10.0 mi SSW 8.1 mph - N/A   Clear
11:55 PM 44.2 °F 39.7 °F 31.6 °F 61% 30.05 in 10.0 mi South 8.1 mph - N/A   Clear